sensor_id;sensor_type;location;lat;lon;timestamp;P1;durP1;ratioP1;P2;durP2;ratioP2
34828;SDS011;21042;47.620;12.188;2023-06-04T00:01:12;8.35;;;5.53;;
34828;SDS011;21042;47.620;12.188;2023-06-04T00:03:42;7.90;;;5.68;;
34828;SDS011;21042;47.620;12.188;2023-06-04T00:06:09;7.55;;;5.22;;
34828;SDS011;21042;47.620;12.188;2023-06-04T00:08:36;10.00;;;5.55;;
34828;SDS011;21042;47.620;12.188;2023-06-04T00:11:03;8.80;;;5.75;;
34828;SDS011;21042;47.620;12.188;2023-06-04T00:13:30;14.88;;;6.63;;
34828;SDS011;21042;47.620;12.188;2023-06-04T00:15:57;9.10;;;5.53;;
34828;SDS011;21042;47.620;12.188;2023-06-04T00:18:24;8.95;;;5.93;;
34828;SDS011;21042;47.620;12.188;2023-06-04T00:20:50;9.23;;;5.57;;
34828;SDS011;21042;47.620;12.188;2023-06-04T00:23:17;8.02;;;4.90;;
34828;SDS011;21042;47.620;12.188;2023-06-04T00:25:44;8.98;;;5.15;;
34828;SDS011;21042;47.620;12.188;2023-06-04T00:28:11;7.20;;;5.38;;
34828;SDS011;21042;47.620;12.188;2023-06-04T00:30:38;11.57;;;5.53;;
34828;SDS011;21042;47.620;12.188;2023-06-04T00:33:05;11.30;;;6.38;;
34828;SDS011;21042;47.620;12.188;2023-06-04T00:35:32;10.43;;;6.00;;
34828;SDS011;21042;47.620;12.188;2023-06-04T00:40:26;7.03;;;5.70;;
34828;SDS011;21042;47.620;12.188;2023-06-04T00:42:52;8.90;;;6.18;;
34828;SDS011;21042;47.620;12.188;2023-06-04T00:45:21;9.60;;;6.18;;
34828;SDS011;21042;47.620;12.188;2023-06-04T00:47:52;14.15;;;6.07;;
34828;SDS011;21042;47.620;12.188;2023-06-04T00:50:19;10.63;;;6.05;;
34828;SDS011;21042;47.620;12.188;2023-06-04T00:52:49;12.77;;;7.15;;
34828;SDS011;21042;47.620;12.188;2023-06-04T00:55:16;12.20;;;6.50;;
34828;SDS011;21042;47.620;12.188;2023-06-04T00:57:44;8.38;;;6.07;;
34828;SDS011;21042;47.620;12.188;2023-06-04T01:00:11;8.95;;;6.10;;
34828;SDS011;21042;47.620;12.188;2023-06-04T01:05:19;10.52;;;6.40;;
34828;SDS011;21042;47.620;12.188;2023-06-04T01:07:51;11.80;;;6.45;;
34828;SDS011;21042;47.620;12.188;2023-06-04T01:10:18;12.02;;;6.55;;
34828;SDS011;21042;47.620;12.188;2023-06-04T01:12:45;11.40;;;7.13;;
34828;SDS011;21042;47.620;12.188;2023-06-04T01:15:12;9.10;;;6.35;;
34828;SDS011;21042;47.620;12.188;2023-06-04T01:17:40;11.25;;;6.63;;
34828;SDS011;21042;47.620;12.188;2023-06-04T01:20:43;9.98;;;6.80;;
34828;SDS011;21042;47.620;12.188;2023-06-04T01:23:14;11.13;;;6.47;;
34828;SDS011;21042;47.620;12.188;2023-06-04T01:25:41;8.95;;;6.55;;
34828;SDS011;21042;47.620;12.188;2023-06-04T01:28:11;8.75;;;6.43;;
34828;SDS011;21042;47.620;12.188;2023-06-04T01:30:40;10.25;;;6.05;;
34828;SDS011;21042;47.620;12.188;2023-06-04T01:33:13;9.90;;;6.93;;
34828;SDS011;21042;47.620;12.188;2023-06-04T01:35:41;10.80;;;6.88;;
34828;SDS011;21042;47.620;12.188;2023-06-04T01:38:08;9.82;;;5.97;;
34828;SDS011;21042;47.620;12.188;2023-06-04T01:40:36;12.40;;;6.47;;
34828;SDS011;21042;47.620;12.188;2023-06-04T01:43:03;9.70;;;6.38;;
34828;SDS011;21042;47.620;12.188;2023-06-04T01:45:30;11.40;;;7.03;;
34828;SDS011;21042;47.620;12.188;2023-06-04T01:47:57;11.05;;;6.38;;
34828;SDS011;21042;47.620;12.188;2023-06-04T01:50:24;9.45;;;6.25;;
34828;SDS011;21042;47.620;12.188;2023-06-04T01:52:51;10.80;;;6.78;;
34828;SDS011;21042;47.620;12.188;2023-06-04T01:55:18;12.02;;;7.05;;
34828;SDS011;21042;47.620;12.188;2023-06-04T01:57:45;9.32;;;6.50;;
34828;SDS011;21042;47.620;12.188;2023-06-04T02:00:16;9.02;;;6.78;;
34828;SDS011;21042;47.620;12.188;2023-06-04T02:02:44;9.10;;;6.45;;
34828;SDS011;21042;47.620;12.188;2023-06-04T02:05:15;13.40;;;6.75;;
34828;SDS011;21042;47.620;12.188;2023-06-04T02:07:42;9.95;;;6.68;;
34828;SDS011;21042;47.620;12.188;2023-06-04T02:10:11;9.52;;;6.50;;
34828;SDS011;21042;47.620;12.188;2023-06-04T02:12:40;11.73;;;6.63;;
34828;SDS011;21042;47.620;12.188;2023-06-04T02:15:19;9.35;;;6.95;;
34828;SDS011;21042;47.620;12.188;2023-06-04T02:17:46;12.00;;;6.82;;
34828;SDS011;21042;47.620;12.188;2023-06-04T02:20:14;10.93;;;7.22;;
34828;SDS011;21042;47.620;12.188;2023-06-04T02:25:08;10.85;;;6.97;;
34828;SDS011;21042;47.620;12.188;2023-06-04T02:27:38;14.73;;;7.20;;
34828;SDS011;21042;47.620;12.188;2023-06-04T02:30:05;10.43;;;7.00;;
34828;SDS011;21042;47.620;12.188;2023-06-04T02:32:32;9.20;;;6.65;;
34828;SDS011;21042;47.620;12.188;2023-06-04T02:35:03;10.70;;;7.28;;
34828;SDS011;21042;47.620;12.188;2023-06-04T02:37:30;8.60;;;6.60;;
34828;SDS011;21042;47.620;12.188;2023-06-04T02:39:57;10.73;;;6.78;;
34828;SDS011;21042;47.620;12.188;2023-06-04T02:42:23;9.07;;;6.03;;
34828;SDS011;21042;47.620;12.188;2023-06-04T02:44:51;11.98;;;6.80;;
34828;SDS011;21042;47.620;12.188;2023-06-04T02:47:18;8.30;;;6.93;;
34828;SDS011;21042;47.620;12.188;2023-06-04T02:49:45;10.18;;;6.00;;
34828;SDS011;21042;47.620;12.188;2023-06-04T02:52:12;13.25;;;6.25;;
34828;SDS011;21042;47.620;12.188;2023-06-04T02:54:39;9.52;;;6.22;;
34828;SDS011;21042;47.620;12.188;2023-06-04T02:57:06;10.63;;;6.75;;
34828;SDS011;21042;47.620;12.188;2023-06-04T02:59:34;8.15;;;6.30;;
34828;SDS011;21042;47.620;12.188;2023-06-04T03:02:03;9.68;;;6.63;;
34828;SDS011;21042;47.620;12.188;2023-06-04T03:04:30;9.93;;;6.80;;
34828;SDS011;21042;47.620;12.188;2023-06-04T03:07:01;9.70;;;6.45;;
34828;SDS011;21042;47.620;12.188;2023-06-04T03:09:29;9.68;;;6.63;;
34828;SDS011;21042;47.620;12.188;2023-06-04T03:11:57;10.40;;;6.53;;
34828;SDS011;21042;47.620;12.188;2023-06-04T03:14:29;8.32;;;6.20;;
34828;SDS011;21042;47.620;12.188;2023-06-04T03:16:59;9.90;;;7.18;;
34828;SDS011;21042;47.620;12.188;2023-06-04T03:19:40;10.95;;;6.68;;
34828;SDS011;21042;47.620;12.188;2023-06-04T03:22:08;10.55;;;7.20;;
34828;SDS011;21042;47.620;12.188;2023-06-04T03:24:40;10.85;;;7.05;;
34828;SDS011;21042;47.620;12.188;2023-06-04T03:27:08;8.68;;;6.53;;
34828;SDS011;21042;47.620;12.188;2023-06-04T03:29:39;10.27;;;6.72;;
34828;SDS011;21042;47.620;12.188;2023-06-04T03:32:06;8.57;;;6.60;;
34828;SDS011;21042;47.620;12.188;2023-06-04T03:34:35;14.43;;;7.55;;
34828;SDS011;21042;47.620;12.188;2023-06-04T03:37:02;10.48;;;7.10;;
34828;SDS011;21042;47.620;12.188;2023-06-04T03:39:29;7.88;;;6.35;;
34828;SDS011;21042;47.620;12.188;2023-06-04T03:41:58;10.43;;;6.10;;
34828;SDS011;21042;47.620;12.188;2023-06-04T03:44:24;11.23;;;6.82;;
34828;SDS011;21042;47.620;12.188;2023-06-04T03:46:52;9.07;;;7.03;;
34828;SDS011;21042;47.620;12.188;2023-06-04T03:49:19;7.63;;;5.95;;
34828;SDS011;21042;47.620;12.188;2023-06-04T03:51:47;8.35;;;6.55;;
34828;SDS011;21042;47.620;12.188;2023-06-04T03:56:46;11.43;;;6.50;;
34828;SDS011;21042;47.620;12.188;2023-06-04T03:59:13;8.18;;;6.53;;
34828;SDS011;21042;47.620;12.188;2023-06-04T04:01:41;11.65;;;6.70;;
34828;SDS011;21042;47.620;12.188;2023-06-04T04:04:08;13.35;;;7.03;;
34828;SDS011;21042;47.620;12.188;2023-06-04T04:09:03;11.32;;;7.00;;
34828;SDS011;21042;47.620;12.188;2023-06-04T04:11:32;8.38;;;6.40;;
34828;SDS011;21042;47.620;12.188;2023-06-04T04:13:59;10.00;;;6.13;;
34828;SDS011;21042;47.620;12.188;2023-06-04T04:16:27;8.50;;;5.80;;
34828;SDS011;21042;47.620;12.188;2023-06-04T04:18:55;8.25;;;6.13;;
34828;SDS011;21042;47.620;12.188;2023-06-04T04:21:22;9.68;;;6.45;;
34828;SDS011;21042;47.620;12.188;2023-06-04T04:23:49;8.80;;;6.07;;
34828;SDS011;21042;47.620;12.188;2023-06-04T04:26:18;11.05;;;6.55;;
34828;SDS011;21042;47.620;12.188;2023-06-04T04:28:49;9.70;;;6.15;;
34828;SDS011;21042;47.620;12.188;2023-06-04T04:31:16;9.70;;;6.38;;
34828;SDS011;21042;47.620;12.188;2023-06-04T04:33:45;7.95;;;5.45;;
34828;SDS011;21042;47.620;12.188;2023-06-04T04:36:12;7.75;;;5.90;;
34828;SDS011;21042;47.620;12.188;2023-06-04T04:38:45;8.88;;;6.45;;
34828;SDS011;21042;47.620;12.188;2023-06-04T04:41:12;9.93;;;6.32;;
34828;SDS011;21042;47.620;12.188;2023-06-04T04:43:40;10.75;;;6.57;;
34828;SDS011;21042;47.620;12.188;2023-06-04T04:46:21;8.30;;;6.13;;
34828;SDS011;21042;47.620;12.188;2023-06-04T04:48:48;7.55;;;6.03;;
34828;SDS011;21042;47.620;12.188;2023-06-04T04:51:15;12.27;;;6.25;;
34828;SDS011;21042;47.620;12.188;2023-06-04T04:53:42;10.82;;;6.63;;
34828;SDS011;21042;47.620;12.188;2023-06-04T04:56:09;7.47;;;5.88;;
34828;SDS011;21042;47.620;12.188;2023-06-04T04:58:41;9.80;;;6.88;;
34828;SDS011;21042;47.620;12.188;2023-06-04T05:01:09;10.88;;;6.72;;
34828;SDS011;21042;47.620;12.188;2023-06-04T05:03:37;10.93;;;6.22;;
34828;SDS011;21042;47.620;12.188;2023-06-04T05:06:05;10.00;;;6.63;;
34828;SDS011;21042;47.620;12.188;2023-06-04T05:08:32;9.07;;;6.65;;
34828;SDS011;21042;47.620;12.188;2023-06-04T05:10:59;11.05;;;6.15;;
34828;SDS011;21042;47.620;12.188;2023-06-04T05:13:26;10.27;;;6.78;;
34828;SDS011;21042;47.620;12.188;2023-06-04T05:15:59;8.70;;;6.15;;
34828;SDS011;21042;47.620;12.188;2023-06-04T05:18:36;11.82;;;6.70;;
34828;SDS011;21042;47.620;12.188;2023-06-04T05:21:09;11.35;;;6.70;;
34828;SDS011;21042;47.620;12.188;2023-06-04T05:23:40;9.20;;;6.20;;
34828;SDS011;21042;47.620;12.188;2023-06-04T05:26:08;10.07;;;6.70;;
34828;SDS011;21042;47.620;12.188;2023-06-04T05:28:35;12.00;;;7.53;;
34828;SDS011;21042;47.620;12.188;2023-06-04T05:31:03;12.45;;;6.45;;
34828;SDS011;21042;47.620;12.188;2023-06-04T05:33:33;12.63;;;6.90;;
34828;SDS011;21042;47.620;12.188;2023-06-04T05:36:05;9.70;;;6.65;;
34828;SDS011;21042;47.620;12.188;2023-06-04T05:38:38;12.18;;;7.03;;
34828;SDS011;21042;47.620;12.188;2023-06-04T05:41:08;11.57;;;6.80;;
34828;SDS011;21042;47.620;12.188;2023-06-04T05:43:37;9.73;;;7.32;;
34828;SDS011;21042;47.620;12.188;2023-06-04T05:46:05;11.02;;;6.97;;
34828;SDS011;21042;47.620;12.188;2023-06-04T05:48:34;11.80;;;7.03;;
34828;SDS011;21042;47.620;12.188;2023-06-04T05:53:28;10.30;;;7.30;;
34828;SDS011;21042;47.620;12.188;2023-06-04T05:55:55;8.73;;;6.75;;
34828;SDS011;21042;47.620;12.188;2023-06-04T05:58:22;10.65;;;7.13;;
34828;SDS011;21042;47.620;12.188;2023-06-04T06:00:49;14.45;;;8.40;;
34828;SDS011;21042;47.620;12.188;2023-06-04T06:03:18;14.23;;;7.63;;
34828;SDS011;21042;47.620;12.188;2023-06-04T06:05:47;11.98;;;7.07;;
34828;SDS011;21042;47.620;12.188;2023-06-04T06:08:14;11.90;;;7.25;;
34828;SDS011;21042;47.620;12.188;2023-06-04T06:10:41;11.82;;;8.07;;
34828;SDS011;21042;47.620;12.188;2023-06-04T06:13:08;13.68;;;7.63;;
34828;SDS011;21042;47.620;12.188;2023-06-04T06:15:35;10.60;;;7.45;;
34828;SDS011;21042;47.620;12.188;2023-06-04T06:18:02;11.35;;;7.00;;
34828;SDS011;21042;47.620;12.188;2023-06-04T06:20:29;10.15;;;7.47;;
34828;SDS011;21042;47.620;12.188;2023-06-04T06:22:56;11.27;;;7.32;;
34828;SDS011;21042;47.620;12.188;2023-06-04T06:27:59;9.75;;;7.43;;
34828;SDS011;21042;47.620;12.188;2023-06-04T06:30:26;13.32;;;7.38;;
34828;SDS011;21042;47.620;12.188;2023-06-04T06:32:53;9.52;;;7.30;;
34828;SDS011;21042;47.620;12.188;2023-06-04T06:35:22;9.77;;;7.22;;
34828;SDS011;21042;47.620;12.188;2023-06-04T06:37:49;11.95;;;7.20;;
34828;SDS011;21042;47.620;12.188;2023-06-04T06:40:15;13.15;;;7.03;;
34828;SDS011;21042;47.620;12.188;2023-06-04T06:42:42;12.23;;;6.90;;
34828;SDS011;21042;47.620;12.188;2023-06-04T06:45:13;11.32;;;7.07;;
34828;SDS011;21042;47.620;12.188;2023-06-04T06:47:40;10.25;;;6.45;;
34828;SDS011;21042;47.620;12.188;2023-06-04T06:50:07;8.48;;;7.00;;
34828;SDS011;21042;47.620;12.188;2023-06-04T06:55:01;11.57;;;6.60;;
34828;SDS011;21042;47.620;12.188;2023-06-04T06:57:28;9.10;;;6.22;;
34828;SDS011;21042;47.620;12.188;2023-06-04T06:59:54;11.25;;;6.63;;
34828;SDS011;21042;47.620;12.188;2023-06-04T07:02:21;9.90;;;7.60;;
34828;SDS011;21042;47.620;12.188;2023-06-04T07:07:15;9.85;;;6.53;;
34828;SDS011;21042;47.620;12.188;2023-06-04T07:09:44;8.60;;;5.60;;
34828;SDS011;21042;47.620;12.188;2023-06-04T07:14:38;12.32;;;5.95;;
34828;SDS011;21042;47.620;12.188;2023-06-04T07:17:04;11.95;;;6.03;;
34828;SDS011;21042;47.620;12.188;2023-06-04T07:19:31;8.60;;;6.00;;
34828;SDS011;21042;47.620;12.188;2023-06-04T07:21:58;13.07;;;6.82;;
34828;SDS011;21042;47.620;12.188;2023-06-04T07:24:25;8.70;;;6.45;;
34828;SDS011;21042;47.620;12.188;2023-06-04T07:26:52;9.18;;;5.95;;
34828;SDS011;21042;47.620;12.188;2023-06-04T07:29:19;9.38;;;6.30;;
34828;SDS011;21042;47.620;12.188;2023-06-04T07:31:45;10.40;;;6.40;;
34828;SDS011;21042;47.620;12.188;2023-06-04T07:34:12;7.88;;;5.80;;
34828;SDS011;21042;47.620;12.188;2023-06-04T07:36:39;10.65;;;6.97;;
34828;SDS011;21042;47.620;12.188;2023-06-04T07:39:06;8.75;;;6.72;;
34828;SDS011;21042;47.620;12.188;2023-06-04T07:44:00;7.32;;;6.07;;
34828;SDS011;21042;47.620;12.188;2023-06-04T07:46:27;10.65;;;5.95;;
34828;SDS011;21042;47.620;12.188;2023-06-04T07:48:53;7.32;;;5.95;;
34828;SDS011;21042;47.620;12.188;2023-06-04T07:51:20;7.80;;;6.15;;
34828;SDS011;21042;47.620;12.188;2023-06-04T07:53:49;8.50;;;5.63;;
34828;SDS011;21042;47.620;12.188;2023-06-04T07:56:15;9.07;;;5.13;;
34828;SDS011;21042;47.620;12.188;2023-06-04T07:58:43;8.25;;;5.30;;
34828;SDS011;21042;47.620;12.188;2023-06-04T08:01:11;7.47;;;5.85;;
34828;SDS011;21042;47.620;12.188;2023-06-04T08:03:38;6.43;;;5.43;;
34828;SDS011;21042;47.620;12.188;2023-06-04T08:06:07;7.75;;;5.90;;
34828;SDS011;21042;47.620;12.188;2023-06-04T08:08:33;7.28;;;5.57;;
34828;SDS011;21042;47.620;12.188;2023-06-04T08:11:00;7.72;;;6.18;;
34828;SDS011;21042;47.620;12.188;2023-06-04T08:13:27;10.32;;;5.40;;
34828;SDS011;21042;47.620;12.188;2023-06-04T08:15:54;9.57;;;5.60;;
34828;SDS011;21042;47.620;12.188;2023-06-04T08:18:21;10.05;;;5.70;;
34828;SDS011;21042;47.620;12.188;2023-06-04T08:20:47;8.05;;;5.30;;
34828;SDS011;21042;47.620;12.188;2023-06-04T08:23:14;9.35;;;5.75;;
34828;SDS011;21042;47.620;12.188;2023-06-04T08:25:41;9.35;;;5.38;;
34828;SDS011;21042;47.620;12.188;2023-06-04T08:28:08;9.13;;;5.45;;
34828;SDS011;21042;47.620;12.188;2023-06-04T08:30:35;7.68;;;5.53;;
34828;SDS011;21042;47.620;12.188;2023-06-04T08:33:02;8.73;;;6.00;;
34828;SDS011;21042;47.620;12.188;2023-06-04T08:35:29;11.15;;;6.00;;
34828;SDS011;21042;47.620;12.188;2023-06-04T08:37:56;8.63;;;5.82;;
34828;SDS011;21042;47.620;12.188;2023-06-04T08:40:23;10.32;;;5.68;;
34828;SDS011;21042;47.620;12.188;2023-06-04T08:42:51;10.27;;;6.13;;
34828;SDS011;21042;47.620;12.188;2023-06-04T08:45:24;12.32;;;6.63;;
34828;SDS011;21042;47.620;12.188;2023-06-04T08:47:52;11.15;;;6.65;;
34828;SDS011;21042;47.620;12.188;2023-06-04T08:50:20;12.10;;;6.40;;
34828;SDS011;21042;47.620;12.188;2023-06-04T08:52:52;8.73;;;5.53;;
34828;SDS011;21042;47.620;12.188;2023-06-04T08:55:23;11.07;;;5.75;;
34828;SDS011;21042;47.620;12.188;2023-06-04T08:57:50;13.45;;;6.15;;
34828;SDS011;21042;47.620;12.188;2023-06-04T09:00:18;10.20;;;5.40;;
34828;SDS011;21042;47.620;12.188;2023-06-04T09:02:46;8.05;;;5.18;;
34828;SDS011;21042;47.620;12.188;2023-06-04T09:05:18;9.32;;;5.53;;
34828;SDS011;21042;47.620;12.188;2023-06-04T09:07:47;7.90;;;5.55;;
34828;SDS011;21042;47.620;12.188;2023-06-04T09:10:17;12.05;;;6.32;;
34828;SDS011;21042;47.620;12.188;2023-06-04T09:12:47;7.63;;;5.57;;
34828;SDS011;21042;47.620;12.188;2023-06-04T09:15:17;9.60;;;5.55;;
34828;SDS011;21042;47.620;12.188;2023-06-04T09:17:44;10.82;;;5.40;;
34828;SDS011;21042;47.620;12.188;2023-06-04T09:20:20;12.15;;;5.97;;
34828;SDS011;21042;47.620;12.188;2023-06-04T09:22:48;13.85;;;5.70;;
34828;SDS011;21042;47.620;12.188;2023-06-04T09:25:19;9.00;;;5.80;;
34828;SDS011;21042;47.620;12.188;2023-06-04T09:27:47;7.75;;;5.35;;
34828;SDS011;21042;47.620;12.188;2023-06-04T09:30:15;6.43;;;5.25;;
34828;SDS011;21042;47.620;12.188;2023-06-04T09:32:42;11.07;;;5.60;;
34828;SDS011;21042;47.620;12.188;2023-06-04T09:35:13;11.90;;;6.22;;
34828;SDS011;21042;47.620;12.188;2023-06-04T09:37:41;9.10;;;5.15;;
34828;SDS011;21042;47.620;12.188;2023-06-04T09:40:09;19.00;;;5.50;;
34828;SDS011;21042;47.620;12.188;2023-06-04T09:42:46;8.60;;;4.68;;
34828;SDS011;21042;47.620;12.188;2023-06-04T09:45:27;8.48;;;5.22;;
34828;SDS011;21042;47.620;12.188;2023-06-04T09:47:59;9.57;;;5.53;;
34828;SDS011;21042;47.620;12.188;2023-06-04T09:50:30;7.97;;;5.45;;
34828;SDS011;21042;47.620;12.188;2023-06-04T09:53:00;7.38;;;5.50;;
34828;SDS011;21042;47.620;12.188;2023-06-04T09:55:28;7.68;;;5.60;;
34828;SDS011;21042;47.620;12.188;2023-06-04T09:57:55;10.43;;;5.25;;
34828;SDS011;21042;47.620;12.188;2023-06-04T10:00:24;6.65;;;4.95;;
34828;SDS011;21042;47.620;12.188;2023-06-04T10:02:55;8.23;;;5.22;;
34828;SDS011;21042;47.620;12.188;2023-06-04T10:05:24;8.02;;;4.78;;
34828;SDS011;21042;47.620;12.188;2023-06-04T10:07:52;7.68;;;5.43;;
34828;SDS011;21042;47.620;12.188;2023-06-04T10:10:23;7.25;;;4.90;;
34828;SDS011;21042;47.620;12.188;2023-06-04T10:13:05;17.13;;;5.53;;
34828;SDS011;21042;47.620;12.188;2023-06-04T10:15:41;8.13;;;4.65;;
34828;SDS011;21042;47.620;12.188;2023-06-04T10:18:09;10.93;;;5.22;;
34828;SDS011;21042;47.620;12.188;2023-06-04T10:20:37;7.95;;;5.03;;
34828;SDS011;21042;47.620;12.188;2023-06-04T10:23:05;7.65;;;4.30;;
34828;SDS011;21042;47.620;12.188;2023-06-04T10:25:34;8.07;;;4.70;;
34828;SDS011;21042;47.620;12.188;2023-06-04T10:28:02;13.75;;;5.40;;
34828;SDS011;21042;47.620;12.188;2023-06-04T10:30:30;9.30;;;4.93;;
34828;SDS011;21042;47.620;12.188;2023-06-04T10:32:57;7.60;;;4.90;;
34828;SDS011;21042;47.620;12.188;2023-06-04T10:35:34;5.45;;;4.68;;
34828;SDS011;21042;47.620;12.188;2023-06-04T10:38:08;6.57;;;4.65;;
34828;SDS011;21042;47.620;12.188;2023-06-04T10:40:37;10.23;;;4.65;;
34828;SDS011;21042;47.620;12.188;2023-06-04T10:43:05;9.73;;;4.38;;
34828;SDS011;21042;47.620;12.188;2023-06-04T10:45:40;6.97;;;4.05;;
34828;SDS011;21042;47.620;12.188;2023-06-04T10:48:07;5.35;;;4.30;;
34828;SDS011;21042;47.620;12.188;2023-06-04T10:50:49;7.05;;;4.35;;
34828;SDS011;21042;47.620;12.188;2023-06-04T10:53:18;7.72;;;4.47;;
34828;SDS011;21042;47.620;12.188;2023-06-04T10:55:46;10.93;;;4.35;;
34828;SDS011;21042;47.620;12.188;2023-06-04T10:58:14;5.82;;;3.95;;
34828;SDS011;21042;47.620;12.188;2023-06-04T11:00:42;5.57;;;3.55;;
34828;SDS011;21042;47.620;12.188;2023-06-04T11:03:16;6.03;;;3.85;;
34828;SDS011;21042;47.620;12.188;2023-06-04T11:05:44;8.18;;;3.80;;
34828;SDS011;21042;47.620;12.188;2023-06-04T11:08:12;6.40;;;3.63;;
34828;SDS011;21042;47.620;12.188;2023-06-04T11:10:41;4.60;;;3.80;;
34828;SDS011;21042;47.620;12.188;2023-06-04T11:13:09;6.38;;;3.85;;
34828;SDS011;21042;47.620;12.188;2023-06-04T11:15:40;7.97;;;4.03;;
34828;SDS011;21042;47.620;12.188;2023-06-04T11:18:15;9.70;;;3.65;;
34828;SDS011;21042;47.620;12.188;2023-06-04T11:20:44;6.82;;;3.42;;
34828;SDS011;21042;47.620;12.188;2023-06-04T11:23:14;7.18;;;3.83;;
34828;SDS011;21042;47.620;12.188;2023-06-04T11:25:42;5.47;;;3.90;;
34828;SDS011;21042;47.620;12.188;2023-06-04T11:28:16;7.15;;;3.88;;
34828;SDS011;21042;47.620;12.188;2023-06-04T11:33:44;8.50;;;3.83;;
34828;SDS011;21042;47.620;12.188;2023-06-04T11:36:25;7.68;;;3.65;;
34828;SDS011;21042;47.620;12.188;2023-06-04T11:39:00;8.13;;;3.78;;
34828;SDS011;21042;47.620;12.188;2023-06-04T11:41:31;7.18;;;4.07;;
34828;SDS011;21042;47.620;12.188;2023-06-04T11:44:02;10.18;;;4.15;;
34828;SDS011;21042;47.620;12.188;2023-06-04T11:46:33;7.03;;;3.83;;
34828;SDS011;21042;47.620;12.188;2023-06-04T11:49:04;5.25;;;3.33;;
34828;SDS011;21042;47.620;12.188;2023-06-04T11:51:31;6.65;;;4.25;;
34828;SDS011;21042;47.620;12.188;2023-06-04T11:53:59;5.07;;;3.45;;
34828;SDS011;21042;47.620;12.188;2023-06-04T11:56:26;6.15;;;3.78;;
34828;SDS011;21042;47.620;12.188;2023-06-04T11:58:54;8.43;;;3.90;;
34828;SDS011;21042;47.620;12.188;2023-06-04T12:01:21;9.35;;;4.13;;
34828;SDS011;21042;47.620;12.188;2023-06-04T12:03:49;6.68;;;3.47;;
34828;SDS011;21042;47.620;12.188;2023-06-04T12:06:16;6.22;;;3.63;;
34828;SDS011;21042;47.620;12.188;2023-06-04T12:08:51;5.47;;;3.65;;
34828;SDS011;21042;47.620;12.188;2023-06-04T12:11:32;6.60;;;3.88;;
34828;SDS011;21042;47.620;12.188;2023-06-04T12:14:04;7.13;;;4.30;;
34828;SDS011;21042;47.620;12.188;2023-06-04T12:16:32;7.13;;;3.80;;
34828;SDS011;21042;47.620;12.188;2023-06-04T12:21:33;6.32;;;4.03;;
34828;SDS011;21042;47.620;12.188;2023-06-04T12:24:07;7.88;;;3.85;;
34828;SDS011;21042;47.620;12.188;2023-06-04T12:26:38;6.85;;;3.97;;
34828;SDS011;21042;47.620;12.188;2023-06-04T12:29:14;9.82;;;3.95;;
34828;SDS011;21042;47.620;12.188;2023-06-04T12:31:42;8.15;;;3.92;;
34828;SDS011;21042;47.620;12.188;2023-06-04T12:34:14;6.78;;;4.00;;
34828;SDS011;21042;47.620;12.188;2023-06-04T12:36:42;7.35;;;4.05;;
34828;SDS011;21042;47.620;12.188;2023-06-04T12:41:35;6.55;;;3.95;;
34828;SDS011;21042;47.620;12.188;2023-06-04T12:44:02;5.78;;;4.15;;
34828;SDS011;21042;47.620;12.188;2023-06-04T12:46:29;6.60;;;3.75;;
34828;SDS011;21042;47.620;12.188;2023-06-04T12:48:56;5.70;;;3.70;;
34828;SDS011;21042;47.620;12.188;2023-06-04T12:51:23;6.75;;;3.60;;
34828;SDS011;21042;47.620;12.188;2023-06-04T12:53:49;7.28;;;4.32;;
34828;SDS011;21042;47.620;12.188;2023-06-04T12:56:17;9.75;;;4.60;;
34828;SDS011;21042;47.620;12.188;2023-06-04T12:58:44;9.32;;;4.30;;
34828;SDS011;21042;47.620;12.188;2023-06-04T13:01:11;6.47;;;4.18;;
34828;SDS011;21042;47.620;12.188;2023-06-04T13:03:39;7.95;;;4.15;;
34828;SDS011;21042;47.620;12.188;2023-06-04T13:06:07;10.73;;;3.83;;
34828;SDS011;21042;47.620;12.188;2023-06-04T13:08:34;6.65;;;3.95;;
34828;SDS011;21042;47.620;12.188;2023-06-04T13:11:02;7.35;;;3.95;;
34828;SDS011;21042;47.620;12.188;2023-06-04T13:13:29;10.27;;;3.88;;
34828;SDS011;21042;47.620;12.188;2023-06-04T13:15:56;12.30;;;4.22;;
34828;SDS011;21042;47.620;12.188;2023-06-04T13:18:23;7.68;;;4.40;;
34828;SDS011;21042;47.620;12.188;2023-06-04T13:20:49;6.63;;;4.07;;
34828;SDS011;21042;47.620;12.188;2023-06-04T13:23:16;9.00;;;4.68;;
34828;SDS011;21042;47.620;12.188;2023-06-04T13:25:43;5.32;;;3.95;;
34828;SDS011;21042;47.620;12.188;2023-06-04T13:28:10;7.03;;;3.92;;
34828;SDS011;21042;47.620;12.188;2023-06-04T13:33:04;6.93;;;4.00;;
34828;SDS011;21042;47.620;12.188;2023-06-04T13:37:58;6.28;;;4.05;;
34828;SDS011;21042;47.620;12.188;2023-06-04T13:40:25;8.32;;;4.40;;
34828;SDS011;21042;47.620;12.188;2023-06-04T13:42:52;7.65;;;4.25;;
34828;SDS011;21042;47.620;12.188;2023-06-04T13:45:18;8.05;;;4.00;;
34828;SDS011;21042;47.620;12.188;2023-06-04T13:47:47;9.32;;;4.28;;
34828;SDS011;21042;47.620;12.188;2023-06-04T13:50:14;7.88;;;4.53;;
34828;SDS011;21042;47.620;12.188;2023-06-04T13:55:08;6.65;;;4.18;;
34828;SDS011;21042;47.620;12.188;2023-06-04T14:00:02;7.95;;;4.13;;
34828;SDS011;21042;47.620;12.188;2023-06-04T14:04:56;8.45;;;4.40;;
34828;SDS011;21042;47.620;12.188;2023-06-04T14:07:23;6.57;;;4.43;;
34828;SDS011;21042;47.620;12.188;2023-06-04T14:09:49;7.68;;;4.30;;
34828;SDS011;21042;47.620;12.188;2023-06-04T14:12:23;8.70;;;4.50;;
34828;SDS011;21042;47.620;12.188;2023-06-04T14:14:51;4.88;;;3.90;;
34828;SDS011;21042;47.620;12.188;2023-06-04T14:17:17;7.03;;;4.60;;
34828;SDS011;21042;47.620;12.188;2023-06-04T14:19:44;5.30;;;3.97;;
34828;SDS011;21042;47.620;12.188;2023-06-04T14:22:11;4.80;;;3.97;;
34828;SDS011;21042;47.620;12.188;2023-06-04T14:24:39;7.80;;;4.32;;
34828;SDS011;21042;47.620;12.188;2023-06-04T14:27:07;6.68;;;4.10;;
34828;SDS011;21042;47.620;12.188;2023-06-04T14:32:01;7.70;;;4.35;;
34828;SDS011;21042;47.620;12.188;2023-06-04T14:36:55;7.32;;;4.22;;
34828;SDS011;21042;47.620;12.188;2023-06-04T14:39:26;5.53;;;3.25;;
34828;SDS011;21042;47.620;12.188;2023-06-04T14:41:53;5.53;;;4.10;;
34828;SDS011;21042;47.620;12.188;2023-06-04T14:44:20;8.38;;;4.10;;
34828;SDS011;21042;47.620;12.188;2023-06-04T14:46:48;6.50;;;4.03;;
34828;SDS011;21042;47.620;12.188;2023-06-04T14:49:16;9.98;;;4.15;;
34828;SDS011;21042;47.620;12.188;2023-06-04T14:51:43;5.40;;;4.18;;
34828;SDS011;21042;47.620;12.188;2023-06-04T14:54:10;7.05;;;4.25;;
34828;SDS011;21042;47.620;12.188;2023-06-04T14:56:36;5.82;;;4.05;;
34828;SDS011;21042;47.620;12.188;2023-06-04T14:59:03;9.25;;;4.07;;
34828;SDS011;21042;47.620;12.188;2023-06-04T15:01:35;9.40;;;3.70;;
34828;SDS011;21042;47.620;12.188;2023-06-04T15:04:03;12.80;;;3.97;;
34828;SDS011;21042;47.620;12.188;2023-06-04T15:06:30;6.97;;;4.40;;
34828;SDS011;21042;47.620;12.188;2023-06-04T15:08:57;7.53;;;3.97;;
34828;SDS011;21042;47.620;12.188;2023-06-04T15:11:24;6.13;;;4.13;;
34828;SDS011;21042;47.620;12.188;2023-06-04T15:13:52;8.90;;;3.75;;
34828;SDS011;21042;47.620;12.188;2023-06-04T15:16:20;7.20;;;3.97;;
34828;SDS011;21042;47.620;12.188;2023-06-04T15:18:47;8.30;;;4.05;;
34828;SDS011;21042;47.620;12.188;2023-06-04T15:21:15;5.93;;;3.85;;
34828;SDS011;21042;47.620;12.188;2023-06-04T15:23:42;7.38;;;4.22;;
34828;SDS011;21042;47.620;12.188;2023-06-04T15:26:10;5.18;;;4.15;;
34828;SDS011;21042;47.620;12.188;2023-06-04T15:28:37;8.25;;;3.92;;
34828;SDS011;21042;47.620;12.188;2023-06-04T15:31:04;5.75;;;3.92;;